Main page
METAR-TAF:

METAR-TAF

Airports :

Algeciras Heliport

Algeciras, Spain

latitude: 36-07-44N, longitude: 05-26-28W, elevation: 30 m

Current weather observation

The report was made 10 minutes ago, at 03:30 UTC
Wind 3 kt from variable directions
Temperature 22°C
Humidity 69%
Pressure 1012 hPa
Visibility 10 km or more
no clouds below 1500 m and no cumulonimbus

METAR: LEAG 150330Z AUTO VRB03KT CAVOK 22/16 Q1012

Time: 05:40 (03:40 UTC)

Forecast

The report was made 1 hour and 40 minutes ago, at 02:00 UTC
Forecast valid from 15 at 03 UTC to 16 at 03 UTC
Wind 2 kt from variable directions
Visibility 10 km or more
no clouds below 1500 m and no cumulonimbus
Becoming
from 15 at 08 UTC to 15 at 10 UTC
Wind 10 kt from the West
Becoming
from 15 at 19 UTC to 15 at 21 UTC
Wind 2 kt from variable directions

TAF: LEAG 150200Z 1503/1603 VRB02KT CAVOK TX28/1514Z TN23/1505Z BECMG 1508/1510 27010KT BECMG 1519/1521 VRB02KT

Weather observations and forecasts of more than 4000 airports (METAR and TAF reports).

The available stations are represented by yellow and red dots on the map.

Hover mouse over dot to see the name of the station.

Then click to see weather observations and forecasts.

To change the map : click on the green buttons with a black cross to zoom in, on the green button with a dash to zoom out, or on the green arrows for adjacent maps.


METAR-TAF: